Shep, Texas
Current Conditions -  °F | °C
As of 9:58 PM on Friday 24 Oct 2014 (Local Time) from KDYS Reporting Station
Clear Clear  
Wind Chill: 65°   Ceiling: Unl
Heat Index: 65°   Visibility: 10mi
Dew Point: 53°   Wind: 5mph
Humidity: 65%   Direction: 180°S
Pressure: 30.11"   Gusts: NA
Location:  32.0181°N, 100.153°W
Report Text: KDYS 250258Z AUTO 18004KT 10SM CLR 18/12 A3011 RMK AO2 SLP165 T01810115 52009 $
Loading
Personal Weather Stations






























Interactive Weather Map
Tropical Storm Tracking
New forecast layout! Learn more

10-Day Weather Forecast

Advertisements
Track Severe Weather on mobile